sensor_id;sensor_type;location;lat;lon;timestamp;P1;durP1;ratioP1;P2;durP2;ratioP2
10884;SDS011;5495;53.252;10.390;2022-11-14T00:00:37;41.20;;;25.83;;
10884;SDS011;5495;53.252;10.390;2022-11-14T00:03:04;39.00;;;24.10;;
10884;SDS011;5495;53.252;10.390;2022-11-14T00:05:34;42.13;;;25.43;;
10884;SDS011;5495;53.252;10.390;2022-11-14T00:08:04;40.17;;;24.67;;
10884;SDS011;5495;53.252;10.390;2022-11-14T00:10:31;40.60;;;25.57;;
10884;SDS011;5495;53.252;10.390;2022-11-14T00:12:58;36.03;;;25.77;;
10884;SDS011;5495;53.252;10.390;2022-11-14T00:15:25;40.90;;;25.40;;
10884;SDS011;5495;53.252;10.390;2022-11-14T00:17:52;39.40;;;25.17;;
10884;SDS011;5495;53.252;10.390;2022-11-14T00:20:21;39.90;;;24.40;;
10884;SDS011;5495;53.252;10.390;2022-11-14T00:22:49;39.93;;;24.40;;
10884;SDS011;5495;53.252;10.390;2022-11-14T00:25:16;38.40;;;24.43;;
10884;SDS011;5495;53.252;10.390;2022-11-14T00:27:43;38.53;;;24.53;;
10884;SDS011;5495;53.252;10.390;2022-11-14T00:30:10;38.33;;;25.37;;
10884;SDS011;5495;53.252;10.390;2022-11-14T00:32:37;40.00;;;25.53;;
10884;SDS011;5495;53.252;10.390;2022-11-14T00:35:04;37.77;;;23.77;;
10884;SDS011;5495;53.252;10.390;2022-11-14T00:37:33;40.83;;;25.80;;
10884;SDS011;5495;53.252;10.390;2022-11-14T00:40:00;40.47;;;26.17;;
10884;SDS011;5495;53.252;10.390;2022-11-14T00:42:28;40.90;;;26.43;;
10884;SDS011;5495;53.252;10.390;2022-11-14T00:44:54;39.37;;;25.83;;
10884;SDS011;5495;53.252;10.390;2022-11-14T00:47:21;41.30;;;24.97;;
10884;SDS011;5495;53.252;10.390;2022-11-14T00:49:48;41.40;;;25.73;;
10884;SDS011;5495;53.252;10.390;2022-11-14T00:52:15;45.07;;;26.47;;
10884;SDS011;5495;53.252;10.390;2022-11-14T00:54:42;37.30;;;24.67;;
10884;SDS011;5495;53.252;10.390;2022-11-14T00:57:11;38.07;;;24.57;;
10884;SDS011;5495;53.252;10.390;2022-11-14T00:59:38;36.63;;;24.23;;
10884;SDS011;5495;53.252;10.390;2022-11-14T01:02:05;39.53;;;25.93;;
10884;SDS011;5495;53.252;10.390;2022-11-14T01:04:32;39.87;;;25.47;;
10884;SDS011;5495;53.252;10.390;2022-11-14T01:06:59;38.80;;;25.23;;
10884;SDS011;5495;53.252;10.390;2022-11-14T01:09:26;39.77;;;25.07;;
10884;SDS011;5495;53.252;10.390;2022-11-14T01:11:53;38.97;;;25.23;;
10884;SDS011;5495;53.252;10.390;2022-11-14T01:14:21;36.53;;;25.70;;
10884;SDS011;5495;53.252;10.390;2022-11-14T01:16:48;39.13;;;25.83;;
10884;SDS011;5495;53.252;10.390;2022-11-14T01:19:14;40.97;;;26.07;;
10884;SDS011;5495;53.252;10.390;2022-11-14T01:21:41;38.93;;;24.70;;
10884;SDS011;5495;53.252;10.390;2022-11-14T01:24:08;41.97;;;26.33;;
10884;SDS011;5495;53.252;10.390;2022-11-14T01:26:35;42.10;;;26.13;;
10884;SDS011;5495;53.252;10.390;2022-11-14T01:29:02;41.77;;;25.00;;
10884;SDS011;5495;53.252;10.390;2022-11-14T01:31:30;43.00;;;26.47;;
10884;SDS011;5495;53.252;10.390;2022-11-14T01:33:57;41.27;;;24.57;;
10884;SDS011;5495;53.252;10.390;2022-11-14T01:36:24;46.53;;;26.93;;
10884;SDS011;5495;53.252;10.390;2022-11-14T01:38:51;43.90;;;26.03;;
10884;SDS011;5495;53.252;10.390;2022-11-14T01:41:19;39.17;;;25.17;;
10884;SDS011;5495;53.252;10.390;2022-11-14T01:43:46;42.73;;;26.70;;
10884;SDS011;5495;53.252;10.390;2022-11-14T01:46:14;40.80;;;26.37;;
10884;SDS011;5495;53.252;10.390;2022-11-14T01:48:48;45.87;;;26.77;;
10884;SDS011;5495;53.252;10.390;2022-11-14T01:51:20;43.53;;;26.83;;
10884;SDS011;5495;53.252;10.390;2022-11-14T01:53:51;39.60;;;25.37;;
10884;SDS011;5495;53.252;10.390;2022-11-14T01:56:20;40.60;;;26.13;;
10884;SDS011;5495;53.252;10.390;2022-11-14T01:58:51;43.33;;;27.17;;
10884;SDS011;5495;53.252;10.390;2022-11-14T02:01:21;40.63;;;26.53;;
10884;SDS011;5495;53.252;10.390;2022-11-14T02:03:50;40.30;;;26.17;;
10884;SDS011;5495;53.252;10.390;2022-11-14T02:06:21;41.73;;;25.73;;
10884;SDS011;5495;53.252;10.390;2022-11-14T02:08:51;41.07;;;26.77;;
10884;SDS011;5495;53.252;10.390;2022-11-14T02:11:18;43.47;;;26.87;;
10884;SDS011;5495;53.252;10.390;2022-11-14T02:13:45;43.53;;;26.83;;
10884;SDS011;5495;53.252;10.390;2022-11-14T02:16:12;43.37;;;27.10;;
10884;SDS011;5495;53.252;10.390;2022-11-14T02:18:39;40.63;;;26.30;;
10884;SDS011;5495;53.252;10.390;2022-11-14T02:21:07;45.43;;;27.17;;
10884;SDS011;5495;53.252;10.390;2022-11-14T02:23:33;44.67;;;27.60;;
10884;SDS011;5495;53.252;10.390;2022-11-14T02:26:00;41.20;;;25.80;;
10884;SDS011;5495;53.252;10.390;2022-11-14T02:28:27;40.60;;;25.40;;
10884;SDS011;5495;53.252;10.390;2022-11-14T02:30:54;45.97;;;28.67;;
10884;SDS011;5495;53.252;10.390;2022-11-14T02:33:21;41.67;;;26.30;;
10884;SDS011;5495;53.252;10.390;2022-11-14T02:35:48;44.87;;;27.77;;
10884;SDS011;5495;53.252;10.390;2022-11-14T02:38:16;37.87;;;25.40;;
10884;SDS011;5495;53.252;10.390;2022-11-14T02:40:43;44.97;;;26.93;;
10884;SDS011;5495;53.252;10.390;2022-11-14T02:43:10;41.50;;;27.10;;
10884;SDS011;5495;53.252;10.390;2022-11-14T02:45:37;46.83;;;27.57;;
10884;SDS011;5495;53.252;10.390;2022-11-14T02:48:04;43.43;;;26.63;;
10884;SDS011;5495;53.252;10.390;2022-11-14T02:50:31;45.97;;;26.80;;
10884;SDS011;5495;53.252;10.390;2022-11-14T02:52:58;42.93;;;27.40;;
10884;SDS011;5495;53.252;10.390;2022-11-14T02:55:26;43.77;;;27.27;;
10884;SDS011;5495;53.252;10.390;2022-11-14T02:57:53;46.17;;;27.73;;
10884;SDS011;5495;53.252;10.390;2022-11-14T03:00:20;42.93;;;27.53;;
10884;SDS011;5495;53.252;10.390;2022-11-14T03:02:47;45.93;;;28.47;;
10884;SDS011;5495;53.252;10.390;2022-11-14T03:05:14;44.37;;;28.10;;
10884;SDS011;5495;53.252;10.390;2022-11-14T03:07:41;43.60;;;27.40;;
10884;SDS011;5495;53.252;10.390;2022-11-14T03:10:08;44.60;;;27.20;;
10884;SDS011;5495;53.252;10.390;2022-11-14T03:12:36;46.47;;;28.37;;
10884;SDS011;5495;53.252;10.390;2022-11-14T03:15:03;44.80;;;27.63;;
10884;SDS011;5495;53.252;10.390;2022-11-14T03:17:31;45.03;;;28.23;;
10884;SDS011;5495;53.252;10.390;2022-11-14T03:19:58;44.03;;;28.37;;
10884;SDS011;5495;53.252;10.390;2022-11-14T03:22:26;45.03;;;27.37;;
10884;SDS011;5495;53.252;10.390;2022-11-14T03:24:53;47.53;;;28.10;;
10884;SDS011;5495;53.252;10.390;2022-11-14T03:27:20;47.90;;;28.90;;
10884;SDS011;5495;53.252;10.390;2022-11-14T03:29:48;45.57;;;28.60;;
10884;SDS011;5495;53.252;10.390;2022-11-14T03:32:15;43.73;;;27.47;;
10884;SDS011;5495;53.252;10.390;2022-11-14T03:34:42;45.93;;;28.27;;
10884;SDS011;5495;53.252;10.390;2022-11-14T03:37:09;47.87;;;29.63;;
10884;SDS011;5495;53.252;10.390;2022-11-14T03:39:36;48.13;;;28.13;;
10884;SDS011;5495;53.252;10.390;2022-11-14T03:42:03;46.40;;;27.47;;
10884;SDS011;5495;53.252;10.390;2022-11-14T03:44:31;45.57;;;28.70;;
10884;SDS011;5495;53.252;10.390;2022-11-14T03:46:58;42.00;;;27.53;;
10884;SDS011;5495;53.252;10.390;2022-11-14T03:49:27;45.07;;;28.13;;
10884;SDS011;5495;53.252;10.390;2022-11-14T03:51:54;51.13;;;29.00;;
10884;SDS011;5495;53.252;10.390;2022-11-14T03:54:21;43.83;;;26.83;;
10884;SDS011;5495;53.252;10.390;2022-11-14T03:56:48;47.37;;;29.00;;
10884;SDS011;5495;53.252;10.390;2022-11-14T03:59:18;48.87;;;28.03;;
10884;SDS011;5495;53.252;10.390;2022-11-14T04:01:46;44.27;;;27.47;;
10884;SDS011;5495;53.252;10.390;2022-11-14T04:04:14;43.67;;;28.10;;
10884;SDS011;5495;53.252;10.390;2022-11-14T04:06:41;43.30;;;27.87;;
10884;SDS011;5495;53.252;10.390;2022-11-14T04:09:09;45.70;;;28.73;;
10884;SDS011;5495;53.252;10.390;2022-11-14T04:11:36;49.53;;;29.03;;
10884;SDS011;5495;53.252;10.390;2022-11-14T04:14:03;46.33;;;28.20;;
10884;SDS011;5495;53.252;10.390;2022-11-14T04:16:30;45.97;;;27.00;;
10884;SDS011;5495;53.252;10.390;2022-11-14T04:18:57;43.53;;;28.77;;
10884;SDS011;5495;53.252;10.390;2022-11-14T04:21:24;45.27;;;28.03;;
10884;SDS011;5495;53.252;10.390;2022-11-14T04:23:51;45.43;;;28.10;;
10884;SDS011;5495;53.252;10.390;2022-11-14T04:26:18;44.93;;;28.90;;
10884;SDS011;5495;53.252;10.390;2022-11-14T04:28:45;46.53;;;28.63;;
10884;SDS011;5495;53.252;10.390;2022-11-14T04:31:12;45.27;;;29.07;;
10884;SDS011;5495;53.252;10.390;2022-11-14T04:33:39;45.33;;;28.53;;
10884;SDS011;5495;53.252;10.390;2022-11-14T04:36:06;45.13;;;28.33;;
10884;SDS011;5495;53.252;10.390;2022-11-14T04:38:34;51.77;;;29.17;;
10884;SDS011;5495;53.252;10.390;2022-11-14T04:41:01;44.90;;;27.93;;
10884;SDS011;5495;53.252;10.390;2022-11-14T04:43:28;44.57;;;28.80;;
10884;SDS011;5495;53.252;10.390;2022-11-14T04:45:55;44.90;;;28.00;;
10884;SDS011;5495;53.252;10.390;2022-11-14T04:48:22;49.67;;;29.83;;
10884;SDS011;5495;53.252;10.390;2022-11-14T04:50:49;46.80;;;28.60;;
10884;SDS011;5495;53.252;10.390;2022-11-14T04:53:15;48.23;;;29.70;;
10884;SDS011;5495;53.252;10.390;2022-11-14T04:55:43;45.57;;;28.17;;
10884;SDS011;5495;53.252;10.390;2022-11-14T04:58:10;46.63;;;28.37;;
10884;SDS011;5495;53.252;10.390;2022-11-14T05:00:38;54.33;;;30.07;;
10884;SDS011;5495;53.252;10.390;2022-11-14T05:03:08;46.13;;;29.33;;
10884;SDS011;5495;53.252;10.390;2022-11-14T05:05:35;50.27;;;30.00;;
10884;SDS011;5495;53.252;10.390;2022-11-14T05:08:02;47.13;;;30.17;;
10884;SDS011;5495;53.252;10.390;2022-11-14T05:10:31;49.80;;;30.17;;
10884;SDS011;5495;53.252;10.390;2022-11-14T05:12:59;47.20;;;29.93;;
10884;SDS011;5495;53.252;10.390;2022-11-14T05:15:26;48.73;;;30.27;;
10884;SDS011;5495;53.252;10.390;2022-11-14T05:17:53;47.53;;;29.30;;
10884;SDS011;5495;53.252;10.390;2022-11-14T05:20:22;49.10;;;29.57;;
10884;SDS011;5495;53.252;10.390;2022-11-14T05:22:51;46.57;;;28.67;;
10884;SDS011;5495;53.252;10.390;2022-11-14T05:25:18;52.40;;;29.93;;
10884;SDS011;5495;53.252;10.390;2022-11-14T05:27:45;47.77;;;28.87;;
10884;SDS011;5495;53.252;10.390;2022-11-14T05:30:13;49.80;;;29.37;;
10884;SDS011;5495;53.252;10.390;2022-11-14T05:32:41;49.90;;;31.63;;
10884;SDS011;5495;53.252;10.390;2022-11-14T05:35:08;52.20;;;31.57;;
10884;SDS011;5495;53.252;10.390;2022-11-14T05:37:35;52.13;;;31.77;;
10884;SDS011;5495;53.252;10.390;2022-11-14T05:40:02;52.33;;;30.77;;
10884;SDS011;5495;53.252;10.390;2022-11-14T05:42:30;55.27;;;31.23;;
10884;SDS011;5495;53.252;10.390;2022-11-14T05:44:57;55.20;;;30.80;;
10884;SDS011;5495;53.252;10.390;2022-11-14T05:47:24;48.77;;;30.90;;
10884;SDS011;5495;53.252;10.390;2022-11-14T05:49:51;51.37;;;30.77;;
10884;SDS011;5495;53.252;10.390;2022-11-14T05:52:18;55.03;;;31.53;;
10884;SDS011;5495;53.252;10.390;2022-11-14T05:54:45;47.83;;;30.67;;
10884;SDS011;5495;53.252;10.390;2022-11-14T05:57:12;55.57;;;33.17;;
10884;SDS011;5495;53.252;10.390;2022-11-14T05:59:39;53.80;;;32.63;;
10884;SDS011;5495;53.252;10.390;2022-11-14T06:02:06;51.17;;;31.60;;
10884;SDS011;5495;53.252;10.390;2022-11-14T06:04:35;49.50;;;30.67;;
10884;SDS011;5495;53.252;10.390;2022-11-14T06:07:04;49.23;;;28.40;;
10884;SDS011;5495;53.252;10.390;2022-11-14T06:09:31;53.87;;;31.57;;
10884;SDS011;5495;53.252;10.390;2022-11-14T06:11:58;55.83;;;31.93;;
10884;SDS011;5495;53.252;10.390;2022-11-14T06:14:30;56.20;;;32.93;;
10884;SDS011;5495;53.252;10.390;2022-11-14T06:16:57;55.23;;;31.90;;
10884;SDS011;5495;53.252;10.390;2022-11-14T06:19:24;58.73;;;32.57;;
10884;SDS011;5495;53.252;10.390;2022-11-14T06:21:51;61.83;;;33.87;;
10884;SDS011;5495;53.252;10.390;2022-11-14T06:24:18;64.17;;;33.83;;
10884;SDS011;5495;53.252;10.390;2022-11-14T06:26:45;58.20;;;34.73;;
10884;SDS011;5495;53.252;10.390;2022-11-14T06:29:12;57.83;;;33.63;;
10884;SDS011;5495;53.252;10.390;2022-11-14T06:31:39;57.07;;;31.63;;
10884;SDS011;5495;53.252;10.390;2022-11-14T06:34:06;52.77;;;30.37;;
10884;SDS011;5495;53.252;10.390;2022-11-14T06:36:33;55.43;;;30.53;;
10884;SDS011;5495;53.252;10.390;2022-11-14T06:39:01;52.70;;;30.03;;
10884;SDS011;5495;53.252;10.390;2022-11-14T06:41:28;49.37;;;30.00;;
10884;SDS011;5495;53.252;10.390;2022-11-14T06:43:55;53.37;;;31.23;;
10884;SDS011;5495;53.252;10.390;2022-11-14T06:46:22;57.40;;;31.60;;
10884;SDS011;5495;53.252;10.390;2022-11-14T06:48:50;52.77;;;29.60;;
10884;SDS011;5495;53.252;10.390;2022-11-14T06:51:17;57.80;;;31.20;;
10884;SDS011;5495;53.252;10.390;2022-11-14T06:53:44;56.47;;;30.23;;
10884;SDS011;5495;53.252;10.390;2022-11-14T06:56:12;53.03;;;30.37;;
10884;SDS011;5495;53.252;10.390;2022-11-14T06:58:43;54.97;;;30.27;;
10884;SDS011;5495;53.252;10.390;2022-11-14T07:01:13;55.67;;;29.57;;
10884;SDS011;5495;53.252;10.390;2022-11-14T07:03:41;56.40;;;30.93;;
10884;SDS011;5495;53.252;10.390;2022-11-14T07:06:10;60.83;;;31.03;;
10884;SDS011;5495;53.252;10.390;2022-11-14T07:08:40;58.17;;;30.60;;
10884;SDS011;5495;53.252;10.390;2022-11-14T07:11:07;52.67;;;31.27;;
10884;SDS011;5495;53.252;10.390;2022-11-14T07:13:36;55.13;;;31.13;;
10884;SDS011;5495;53.252;10.390;2022-11-14T07:16:04;53.97;;;29.50;;
10884;SDS011;5495;53.252;10.390;2022-11-14T07:18:31;54.37;;;29.67;;
10884;SDS011;5495;53.252;10.390;2022-11-14T07:20:59;57.23;;;31.20;;
10884;SDS011;5495;53.252;10.390;2022-11-14T07:23:27;52.80;;;29.73;;
10884;SDS011;5495;53.252;10.390;2022-11-14T07:25:59;54.50;;;30.50;;
10884;SDS011;5495;53.252;10.390;2022-11-14T07:28:27;56.73;;;29.77;;
10884;SDS011;5495;53.252;10.390;2022-11-14T07:31:02;56.87;;;30.07;;
10884;SDS011;5495;53.252;10.390;2022-11-14T07:33:42;54.60;;;31.50;;
10884;SDS011;5495;53.252;10.390;2022-11-14T07:36:09;56.10;;;30.67;;
10884;SDS011;5495;53.252;10.390;2022-11-14T07:38:43;54.17;;;29.97;;
10884;SDS011;5495;53.252;10.390;2022-11-14T07:41:13;55.27;;;30.47;;
10884;SDS011;5495;53.252;10.390;2022-11-14T07:43:47;53.03;;;29.23;;
10884;SDS011;5495;53.252;10.390;2022-11-14T07:46:18;54.43;;;30.33;;
10884;SDS011;5495;53.252;10.390;2022-11-14T07:48:46;51.43;;;29.63;;
10884;SDS011;5495;53.252;10.390;2022-11-14T07:51:14;52.40;;;30.30;;
10884;SDS011;5495;53.252;10.390;2022-11-14T07:53:45;50.83;;;29.03;;
10884;SDS011;5495;53.252;10.390;2022-11-14T07:56:16;56.30;;;29.50;;
10884;SDS011;5495;53.252;10.390;2022-11-14T07:58:44;55.23;;;29.83;;
10884;SDS011;5495;53.252;10.390;2022-11-14T08:01:11;53.63;;;30.27;;
10884;SDS011;5495;53.252;10.390;2022-11-14T08:03:40;52.33;;;30.50;;
10884;SDS011;5495;53.252;10.390;2022-11-14T08:06:09;53.97;;;29.67;;
10884;SDS011;5495;53.252;10.390;2022-11-14T08:08:40;51.43;;;29.27;;
10884;SDS011;5495;53.252;10.390;2022-11-14T08:11:07;53.83;;;28.90;;
10884;SDS011;5495;53.252;10.390;2022-11-14T08:13:34;49.90;;;28.63;;
10884;SDS011;5495;53.252;10.390;2022-11-14T08:16:05;48.07;;;28.90;;
10884;SDS011;5495;53.252;10.390;2022-11-14T08:18:33;49.00;;;28.17;;
10884;SDS011;5495;53.252;10.390;2022-11-14T08:21:03;54.50;;;30.20;;
10884;SDS011;5495;53.252;10.390;2022-11-14T08:23:30;46.20;;;27.10;;
10884;SDS011;5495;53.252;10.390;2022-11-14T08:25:57;44.70;;;27.00;;
10884;SDS011;5495;53.252;10.390;2022-11-14T08:28:24;49.77;;;28.00;;
10884;SDS011;5495;53.252;10.390;2022-11-14T08:30:51;52.27;;;29.83;;
10884;SDS011;5495;53.252;10.390;2022-11-14T08:33:18;47.30;;;27.73;;
10884;SDS011;5495;53.252;10.390;2022-11-14T08:35:45;43.10;;;26.67;;
10884;SDS011;5495;53.252;10.390;2022-11-14T08:38:13;46.37;;;27.90;;
10884;SDS011;5495;53.252;10.390;2022-11-14T08:40:40;44.90;;;27.03;;
10884;SDS011;5495;53.252;10.390;2022-11-14T08:43:09;46.63;;;28.40;;
10884;SDS011;5495;53.252;10.390;2022-11-14T08:45:39;47.97;;;27.30;;
10884;SDS011;5495;53.252;10.390;2022-11-14T08:48:06;44.07;;;26.93;;
10884;SDS011;5495;53.252;10.390;2022-11-14T08:50:34;52.03;;;28.97;;
10884;SDS011;5495;53.252;10.390;2022-11-14T08:53:01;47.00;;;27.27;;
10884;SDS011;5495;53.252;10.390;2022-11-14T08:55:29;44.50;;;27.57;;
10884;SDS011;5495;53.252;10.390;2022-11-14T08:57:56;47.23;;;26.63;;
10884;SDS011;5495;53.252;10.390;2022-11-14T09:00:23;48.37;;;29.00;;
10884;SDS011;5495;53.252;10.390;2022-11-14T09:02:50;42.90;;;27.13;;
10884;SDS011;5495;53.252;10.390;2022-11-14T09:05:17;46.63;;;27.60;;
10884;SDS011;5495;53.252;10.390;2022-11-14T09:07:44;47.43;;;28.33;;
10884;SDS011;5495;53.252;10.390;2022-11-14T09:10:10;49.10;;;27.50;;
10884;SDS011;5495;53.252;10.390;2022-11-14T09:12:38;44.90;;;27.40;;
10884;SDS011;5495;53.252;10.390;2022-11-14T09:15:05;46.70;;;26.53;;
10884;SDS011;5495;53.252;10.390;2022-11-14T09:17:33;44.97;;;26.50;;
10884;SDS011;5495;53.252;10.390;2022-11-14T09:20:00;43.80;;;27.53;;
10884;SDS011;5495;53.252;10.390;2022-11-14T09:22:27;51.00;;;28.80;;
10884;SDS011;5495;53.252;10.390;2022-11-14T09:24:54;46.60;;;27.13;;
10884;SDS011;5495;53.252;10.390;2022-11-14T09:27:21;46.07;;;28.87;;
10884;SDS011;5495;53.252;10.390;2022-11-14T09:29:48;46.37;;;27.47;;
10884;SDS011;5495;53.252;10.390;2022-11-14T09:32:15;44.97;;;26.17;;
10884;SDS011;5495;53.252;10.390;2022-11-14T09:34:42;49.20;;;27.77;;
10884;SDS011;5495;53.252;10.390;2022-11-14T09:37:09;44.90;;;27.43;;
10884;SDS011;5495;53.252;10.390;2022-11-14T09:39:36;44.77;;;26.70;;
10884;SDS011;5495;53.252;10.390;2022-11-14T09:42:15;44.90;;;27.23;;
10884;SDS011;5495;53.252;10.390;2022-11-14T09:44:56;41.60;;;25.60;;
10884;SDS011;5495;53.252;10.390;2022-11-14T09:47:28;45.37;;;26.47;;
10884;SDS011;5495;53.252;10.390;2022-11-14T09:49:58;45.70;;;27.13;;
10884;SDS011;5495;53.252;10.390;2022-11-14T09:52:34;44.40;;;26.60;;
10884;SDS011;5495;53.252;10.390;2022-11-14T09:55:18;40.37;;;26.50;;
10884;SDS011;5495;53.252;10.390;2022-11-14T09:57:52;44.10;;;25.77;;
10884;SDS011;5495;53.252;10.390;2022-11-14T10:00:23;41.73;;;26.03;;
10884;SDS011;5495;53.252;10.390;2022-11-14T10:02:58;43.20;;;26.70;;
10884;SDS011;5495;53.252;10.390;2022-11-14T10:05:43;41.97;;;24.33;;
10884;SDS011;5495;53.252;10.390;2022-11-14T10:08:28;42.70;;;25.10;;
10884;SDS011;5495;53.252;10.390;2022-11-14T10:11:20;36.70;;;23.87;;
10884;SDS011;5495;53.252;10.390;2022-11-14T10:14:07;42.50;;;23.97;;
10884;SDS011;5495;53.252;10.390;2022-11-14T10:16:55;39.33;;;24.47;;
10884;SDS011;5495;53.252;10.390;2022-11-14T10:19:37;42.43;;;24.63;;
10884;SDS011;5495;53.252;10.390;2022-11-14T10:22:21;38.83;;;24.37;;
10884;SDS011;5495;53.252;10.390;2022-11-14T10:27:53;39.20;;;24.57;;
10884;SDS011;5495;53.252;10.390;2022-11-14T10:30:53;38.17;;;23.83;;
10884;SDS011;5495;53.252;10.390;2022-11-14T10:33:37;41.93;;;24.40;;
10884;SDS011;5495;53.252;10.390;2022-11-14T10:36:14;39.50;;;23.17;;
10884;SDS011;5495;53.252;10.390;2022-11-14T10:38:49;39.37;;;24.17;;
10884;SDS011;5495;53.252;10.390;2022-11-14T10:41:24;39.90;;;24.17;;
10884;SDS011;5495;53.252;10.390;2022-11-14T10:43:52;38.53;;;24.63;;
10884;SDS011;5495;53.252;10.390;2022-11-14T10:46:21;38.07;;;23.73;;
10884;SDS011;5495;53.252;10.390;2022-11-14T10:48:52;39.73;;;23.87;;
10884;SDS011;5495;53.252;10.390;2022-11-14T10:51:21;38.57;;;23.23;;
10884;SDS011;5495;53.252;10.390;2022-11-14T10:53:54;35.00;;;22.60;;
10884;SDS011;5495;53.252;10.390;2022-11-14T10:56:23;35.63;;;22.33;;
10884;SDS011;5495;53.252;10.390;2022-11-14T10:58:52;32.07;;;22.13;;
10884;SDS011;5495;53.252;10.390;2022-11-14T11:01:36;30.20;;;20.90;;
10884;SDS011;5495;53.252;10.390;2022-11-14T11:04:14;30.60;;;20.77;;
10884;SDS011;5495;53.252;10.390;2022-11-14T11:06:46;31.00;;;20.07;;
10884;SDS011;5495;53.252;10.390;2022-11-14T11:09:14;28.03;;;20.13;;
10884;SDS011;5495;53.252;10.390;2022-11-14T11:12:01;28.27;;;20.30;;
10884;SDS011;5495;53.252;10.390;2022-11-14T11:14:30;27.07;;;20.30;;
10884;SDS011;5495;53.252;10.390;2022-11-14T11:19:52;24.87;;;20.37;;
10884;SDS011;5495;53.252;10.390;2022-11-14T11:22:24;27.37;;;20.57;;
10884;SDS011;5495;53.252;10.390;2022-11-14T11:24:53;23.87;;;20.00;;
10884;SDS011;5495;53.252;10.390;2022-11-14T11:27:22;24.00;;;18.93;;
10884;SDS011;5495;53.252;10.390;2022-11-14T11:32:42;24.27;;;19.50;;
10884;SDS011;5495;53.252;10.390;2022-11-14T11:35:11;24.33;;;19.33;;
10884;SDS011;5495;53.252;10.390;2022-11-14T11:37:41;26.63;;;20.83;;
10884;SDS011;5495;53.252;10.390;2022-11-14T11:40:18;23.93;;;18.63;;
10884;SDS011;5495;53.252;10.390;2022-11-14T11:42:48;23.73;;;19.10;;
10884;SDS011;5495;53.252;10.390;2022-11-14T11:45:39;27.40;;;20.17;;
10884;SDS011;5495;53.252;10.390;2022-11-14T11:48:12;24.20;;;20.23;;
10884;SDS011;5495;53.252;10.390;2022-11-14T11:50:43;26.50;;;19.20;;
10884;SDS011;5495;53.252;10.390;2022-11-14T11:53:14;25.03;;;19.27;;
10884;SDS011;5495;53.252;10.390;2022-11-14T11:55:48;23.50;;;19.13;;
10884;SDS011;5495;53.252;10.390;2022-11-14T11:58:20;26.10;;;19.20;;
10884;SDS011;5495;53.252;10.390;2022-11-14T12:00:53;25.70;;;19.97;;
10884;SDS011;5495;53.252;10.390;2022-11-14T12:03:24;28.13;;;19.80;;
10884;SDS011;5495;53.252;10.390;2022-11-14T12:06:01;26.77;;;19.87;;
10884;SDS011;5495;53.252;10.390;2022-11-14T12:08:36;26.03;;;20.70;;
10884;SDS011;5495;53.252;10.390;2022-11-14T12:11:13;26.97;;;20.03;;
10884;SDS011;5495;53.252;10.390;2022-11-14T12:14:00;26.37;;;19.57;;
10884;SDS011;5495;53.252;10.390;2022-11-14T12:16:57;26.10;;;19.50;;
10884;SDS011;5495;53.252;10.390;2022-11-14T12:19:38;29.63;;;20.23;;
10884;SDS011;5495;53.252;10.390;2022-11-14T12:25:43;29.67;;;20.10;;
10884;SDS011;5495;53.252;10.390;2022-11-14T12:31:14;29.10;;;19.27;;
10884;SDS011;5495;53.252;10.390;2022-11-14T12:33:43;27.33;;;19.03;;
10884;SDS011;5495;53.252;10.390;2022-11-14T12:36:16;28.33;;;19.80;;
10884;SDS011;5495;53.252;10.390;2022-11-14T12:38:45;30.60;;;19.53;;
10884;SDS011;5495;53.252;10.390;2022-11-14T12:41:19;27.33;;;19.17;;
10884;SDS011;5495;53.252;10.390;2022-11-14T12:43:52;29.03;;;19.13;;
10884;SDS011;5495;53.252;10.390;2022-11-14T12:49:55;32.63;;;21.50;;
10884;SDS011;5495;53.252;10.390;2022-11-14T12:52:46;27.57;;;19.33;;
10884;SDS011;5495;53.252;10.390;2022-11-14T12:58:42;32.53;;;20.83;;
10884;SDS011;5495;53.252;10.390;2022-11-14T13:01:38;29.50;;;18.87;;
10884;SDS011;5495;53.252;10.390;2022-11-14T13:04:27;26.57;;;19.10;;
10884;SDS011;5495;53.252;10.390;2022-11-14T13:07:10;29.77;;;19.37;;
10884;SDS011;5495;53.252;10.390;2022-11-14T13:09:57;30.53;;;20.43;;
10884;SDS011;5495;53.252;10.390;2022-11-14T13:12:41;27.53;;;19.10;;
10884;SDS011;5495;53.252;10.390;2022-11-14T13:15:46;29.70;;;19.63;;
10884;SDS011;5495;53.252;10.390;2022-11-14T13:18:32;32.83;;;20.47;;
10884;SDS011;5495;53.252;10.390;2022-11-14T13:21:21;31.83;;;20.30;;
10884;SDS011;5495;53.252;10.390;2022-11-14T13:24:08;30.80;;;18.93;;
10884;SDS011;5495;53.252;10.390;2022-11-14T13:26:36;30.30;;;19.97;;
10884;SDS011;5495;53.252;10.390;2022-11-14T13:29:12;31.47;;;19.83;;
10884;SDS011;5495;53.252;10.390;2022-11-14T13:35:36;30.50;;;20.23;;
10884;SDS011;5495;53.252;10.390;2022-11-14T13:38:15;29.20;;;19.77;;
10884;SDS011;5495;53.252;10.390;2022-11-14T13:47:16;31.30;;;20.40;;
10884;SDS011;5495;53.252;10.390;2022-11-14T13:50:04;27.43;;;19.53;;
10884;SDS011;5495;53.252;10.390;2022-11-14T13:52:38;28.70;;;19.27;;
10884;SDS011;5495;53.252;10.390;2022-11-14T13:55:15;31.03;;;19.93;;
10884;SDS011;5495;53.252;10.390;2022-11-14T13:57:47;29.93;;;20.33;;
10884;SDS011;5495;53.252;10.390;2022-11-14T14:00:22;31.93;;;20.83;;
10884;SDS011;5495;53.252;10.390;2022-11-14T14:03:00;32.93;;;19.47;;
10884;SDS011;5495;53.252;10.390;2022-11-14T14:05:54;27.10;;;18.90;;
10884;SDS011;5495;53.252;10.390;2022-11-14T14:08:38;31.37;;;19.73;;
10884;SDS011;5495;53.252;10.390;2022-11-14T14:11:25;31.27;;;20.37;;
10884;SDS011;5495;53.252;10.390;2022-11-14T14:14:14;30.03;;;19.40;;
10884;SDS011;5495;53.252;10.390;2022-11-14T14:17:04;30.67;;;20.50;;
10884;SDS011;5495;53.252;10.390;2022-11-14T14:23:42;29.27;;;18.63;;
10884;SDS011;5495;53.252;10.390;2022-11-14T14:26:30;29.73;;;18.90;;
10884;SDS011;5495;53.252;10.390;2022-11-14T14:29:21;30.90;;;19.73;;
10884;SDS011;5495;53.252;10.390;2022-11-14T14:31:50;33.33;;;20.20;;
10884;SDS011;5495;53.252;10.390;2022-11-14T14:34:21;32.67;;;20.70;;
10884;SDS011;5495;53.252;10.390;2022-11-14T14:36:53;30.17;;;19.93;;
10884;SDS011;5495;53.252;10.390;2022-11-14T14:39:25;30.40;;;20.30;;
10884;SDS011;5495;53.252;10.390;2022-11-14T14:42:08;27.53;;;18.67;;
10884;SDS011;5495;53.252;10.390;2022-11-14T14:44:39;29.07;;;19.43;;
10884;SDS011;5495;53.252;10.390;2022-11-14T14:47:35;29.07;;;19.57;;
10884;SDS011;5495;53.252;10.390;2022-11-14T14:50:13;29.70;;;19.53;;
10884;SDS011;5495;53.252;10.390;2022-11-14T14:52:42;28.10;;;18.70;;
10884;SDS011;5495;53.252;10.390;2022-11-14T14:55:19;29.63;;;20.07;;
10884;SDS011;5495;53.252;10.390;2022-11-14T14:57:48;29.90;;;20.23;;
10884;SDS011;5495;53.252;10.390;2022-11-14T15:00:16;32.80;;;20.67;;
10884;SDS011;5495;53.252;10.390;2022-11-14T15:02:58;32.50;;;19.67;;
10884;SDS011;5495;53.252;10.390;2022-11-14T15:05:41;32.87;;;19.50;;
10884;SDS011;5495;53.252;10.390;2022-11-14T15:08:10;30.53;;;19.67;;
10884;SDS011;5495;53.252;10.390;2022-11-14T15:10:39;30.57;;;19.80;;
10884;SDS011;5495;53.252;10.390;2022-11-14T15:13:08;27.83;;;19.93;;
10884;SDS011;5495;53.252;10.390;2022-11-14T15:15:41;28.50;;;19.03;;
10884;SDS011;5495;53.252;10.390;2022-11-14T15:18:13;26.63;;;18.87;;